Terminal Aerodrome Forecast
Issued by NWS Melbourne, FL

Home | Current Version | Previous Version | Text Only | Print | Product List | Glossary On
Versions: 1 2 3 4 5 6 7 8 9 10 11 12 13 14 15 16 17 18 19
731
FTUS42 KMLB 221121
TAFMLB
TAF
KMLB 221121Z 2212/2312 18005KT P6SM VCSH SCT020 OVC100
      TEMPO 2212/2214 3SM SHRA BKN020
     FM221400 12010KT P6SM VCSH SCT025 BKN050 OVC080
      TEMPO 2214/2218 2SM SHRA BKN025
     FM230200 12006KT P6SM FEW030 BKN100 OVC250=

USA.gov is the U.S. government's official web portal to all federal, state and local government web resources and services.